createdAt,value
2023-02-23T00:00:07.051Z,87.731934
2023-02-23T00:01:16.956Z,87.835693
2023-02-23T00:02:24.402Z,87.939453
2023-02-23T00:03:33.176Z,87.939453
2023-02-23T00:04:41.741Z,87.835693
2023-02-23T00:05:50.390Z,87.939453
2023-02-23T00:06:59.138Z,87.939453
2023-02-23T00:08:08.714Z,88.037109
2023-02-23T00:09:18.385Z,88.037109
2023-02-23T00:10:28.037Z,87.939453
2023-02-23T00:11:35.681Z,88.140869
2023-02-23T00:12:45.368Z,88.244629
2023-02-23T00:13:54.007Z,88.287354
2023-02-23T00:15:03.686Z,88.391113
2023-02-23T00:16:13.356Z,88.494873
2023-02-23T00:17:20.995Z,88.494873
2023-02-23T00:18:30.673Z,88.592529
2023-02-23T00:19:38.292Z,88.592529
2023-02-23T00:20:45.956Z,88.696289
2023-02-23T00:21:55.610Z,88.696289
2023-02-23T00:23:04.291Z,88.800049
2023-02-23T00:24:13.963Z,88.800049
2023-02-23T00:25:22.636Z,88.903809
2023-02-23T00:26:32.348Z,89.007568
2023-02-23T00:27:42.020Z,89.007568
2023-02-23T00:28:49.668Z,89.007568
2023-02-23T00:29:59.312Z,89.215088
2023-02-23T00:31:09.024Z,89.416504
2023-02-23T00:32:18.671Z,89.520264
2023-02-23T00:33:27.487Z,89.520264
2023-02-23T00:34:37.203Z,89.624023
2023-02-23T00:35:46.814Z,89.624023
2023-02-23T00:36:56.521Z,89.727783
2023-02-23T00:38:05.174Z,89.624023
2023-02-23T00:39:15.647Z,89.624023
2023-02-23T00:40:25.340Z,89.624023
2023-02-23T00:41:33.974Z,89.727783
2023-02-23T00:42:42.660Z,89.831543
2023-02-23T00:43:51.316Z,89.831543
2023-02-23T00:44:59.967Z,89.831543
2023-02-23T00:46:09.661Z,89.935303
2023-02-23T00:47:17.423Z,89.935303
2023-02-23T00:48:25.943Z,89.935303
2023-02-23T00:49:35.618Z,89.935303
2023-02-23T00:50:45.266Z,89.935303
2023-02-23T00:51:53.927Z,89.935303
2023-02-23T00:53:02.609Z,89.935303
2023-02-23T00:54:12.270Z,89.935303
2023-02-23T00:55:21.927Z,89.935303
2023-02-23T00:56:30.565Z,89.935303
2023-02-23T00:57:41.211Z,89.935303
2023-02-23T00:58:49.890Z,90.032959
2023-02-23T00:59:56.530Z,90.032959
2023-02-23T01:01:06.246Z,90.136719
2023-02-23T01:02:14.859Z,90.032959
2023-02-23T01:03:24.573Z,90.136719
2023-02-23T01:04:34.211Z,90.240479
2023-02-23T01:05:42.879Z,90.240479
2023-02-23T01:06:52.542Z,90.344238
2023-02-23T01:08:01.215Z,90.344238
2023-02-23T01:09:09.877Z,90.240479
2023-02-23T01:10:19.535Z,90.344238
2023-02-23T01:11:28.191Z,90.447998
2023-02-23T01:12:36.851Z,90.447998
2023-02-23T01:13:46.520Z,90.447998
2023-02-23T01:14:56.164Z,90.447998
2023-02-23T01:16:05.820Z,90.344238
2023-02-23T01:17:14.474Z,90.344238
2023-02-23T01:18:22.170Z,90.447998
2023-02-23T01:19:31.908Z,90.551758
2023-02-23T01:20:42.430Z,90.655518
2023-02-23T01:21:51.130Z,90.655518
2023-02-23T01:23:00.822Z,90.753174
2023-02-23T01:24:10.546Z,90.753174
2023-02-23T01:25:20.211Z,90.655518
2023-02-23T01:26:28.879Z,90.655518
2023-02-23T01:27:38.543Z,90.655518
2023-02-23T01:28:48.229Z,90.655518
2023-02-23T01:29:56.887Z,90.655518
2023-02-23T01:31:06.620Z,90.753174
2023-02-23T01:32:15.374Z,90.753174
2023-02-23T01:33:24.908Z,90.655518
2023-02-23T01:34:34.625Z,90.655518
2023-02-23T01:35:44.262Z,90.655518
2023-02-23T01:36:52.943Z,90.551758
2023-02-23T01:38:02.608Z,90.655518
2023-02-23T01:39:11.304Z,90.612793
2023-02-23T01:40:19.962Z,90.655518
2023-02-23T01:41:27.621Z,90.551758
2023-02-23T01:42:36.253Z,90.551758
2023-02-23T01:43:45.950Z,90.655518
2023-02-23T01:44:54.628Z,90.655518
2023-02-23T01:46:03.300Z,90.753174
2023-02-23T01:47:12.951Z,90.856934
2023-02-23T01:48:21.615Z,90.856934
2023-02-23T01:49:31.295Z,90.856934
2023-02-23T01:50:39.986Z,90.856934
2023-02-23T01:51:49.633Z,90.960693
2023-02-23T01:52:59.275Z,90.960693
2023-02-23T01:54:08.943Z,90.856934
2023-02-23T01:55:16.608Z,90.856934
2023-02-23T01:56:25.271Z,90.856934
2023-02-23T01:57:33.909Z,90.960693
2023-02-23T01:58:43.573Z,91.064453
2023-02-23T01:59:53.260Z,91.064453
2023-02-23T02:01:01.899Z,91.168213
2023-02-23T02:02:11.586Z,91.271973
2023-02-23T02:03:19.239Z,91.271973
2023-02-23T02:04:27.917Z,91.271973
2023-02-23T02:05:37.580Z,91.375732
2023-02-23T02:06:47.283Z,91.473389
2023-02-23T02:07:55.925Z,91.473389
2023-02-23T02:09:05.689Z,91.577148
2023-02-23T02:10:15.362Z,91.577148
2023-02-23T02:11:25.021Z,91.577148
2023-02-23T02:12:33.689Z,91.473389
2023-02-23T02:13:43.333Z,91.473389
2023-02-23T02:14:53.020Z,91.473389
2023-02-23T02:16:01.750Z,91.473389
2023-02-23T02:17:10.337Z,91.473389
2023-02-23T02:18:19.995Z,91.473389
2023-02-23T02:19:29.675Z,91.473389
2023-02-23T02:20:39.322Z,91.473389
2023-02-23T02:21:47.986Z,91.577148
2023-02-23T02:22:56.656Z,91.577148
2023-02-23T02:24:06.290Z,91.473389
2023-02-23T02:25:15.962Z,91.473389
2023-02-23T02:26:25.637Z,91.680908
2023-02-23T02:27:34.293Z,91.784668
2023-02-23T02:28:43.959Z,91.784668
2023-02-23T02:29:53.645Z,91.784668
2023-02-23T02:31:02.447Z,91.931152
2023-02-23T02:32:11.099Z,92.034912
2023-02-23T02:33:20.638Z,92.138672
2023-02-23T02:34:29.313Z,92.138672
2023-02-23T02:35:37.975Z,92.242432
2023-02-23T02:36:46.644Z,92.242432
2023-02-23T02:37:56.318Z,92.242432
2023-02-23T02:39:06.032Z,92.340088
2023-02-23T02:40:15.697Z,92.340088
2023-02-23T02:41:24.351Z,92.443848
2023-02-23T02:42:34.008Z,92.443848
2023-02-23T02:43:43.686Z,92.443848
2023-02-23T02:44:52.442Z,92.443848
2023-02-23T02:46:00.151Z,92.443848
2023-02-23T02:47:08.761Z,92.443848
2023-02-23T02:48:18.443Z,92.443848
2023-02-23T02:49:27.082Z,92.443848
2023-02-23T02:50:34.799Z,92.443848
2023-02-23T02:51:44.517Z,92.443848
2023-02-23T02:52:51.176Z,92.443848
2023-02-23T02:54:00.862Z,92.443848
2023-02-23T02:55:09.571Z,92.443848
2023-02-23T02:56:18.189Z,92.340088
2023-02-23T02:57:26.865Z,92.443848
2023-02-23T02:58:35.503Z,92.340088
2023-02-23T02:59:45.200Z,92.340088
2023-02-23T03:00:54.842Z,92.242432
2023-02-23T03:02:03.496Z,92.297363
2023-02-23T03:03:13.189Z,92.242432
2023-02-23T03:04:21.847Z,92.242432
2023-02-23T03:05:30.602Z,92.242432
2023-02-23T03:06:39.218Z,92.199707
2023-02-23T03:07:47.867Z,92.199707
2023-02-23T03:08:57.545Z,92.340088
2023-02-23T03:10:06.224Z,92.340088
2023-02-23T03:11:16.006Z,92.340088
2023-02-23T03:12:25.537Z,92.443848
2023-02-23T03:13:34.185Z,92.443848
2023-02-23T03:14:43.862Z,92.443848
2023-02-23T03:15:52.575Z,92.443848
2023-02-23T03:17:02.161Z,92.340088
2023-02-23T03:18:11.857Z,92.443848
2023-02-23T03:19:19.528Z,92.443848
2023-02-23T03:20:28.212Z,92.443848
2023-02-23T03:21:37.876Z,92.547607
2023-02-23T03:22:46.538Z,92.651367
2023-02-23T03:23:56.189Z,92.547607
2023-02-23T03:25:04.884Z,92.547607
2023-02-23T03:26:14.563Z,92.547607
2023-02-23T03:27:24.274Z,92.547607
2023-02-23T03:28:33.908Z,92.651367
2023-02-23T03:29:41.602Z,92.858887
2023-02-23T03:30:51.395Z,93.060303
2023-02-23T03:32:00.158Z,93.310547
2023-02-23T03:33:08.692Z,93.310547
2023-02-23T03:34:18.358Z,93.414307
2023-02-23T03:35:27.034Z,93.414307
2023-02-23T03:36:36.703Z,93.414307
2023-02-23T03:37:45.346Z,93.518066
2023-02-23T03:38:55.083Z,93.518066
2023-02-23T03:40:04.689Z,93.664551
2023-02-23T03:41:14.381Z,93.621826
2023-02-23T03:42:23.047Z,93.621826
2023-02-23T03:43:31.758Z,93.621826
2023-02-23T03:44:40.386Z,93.621826
2023-02-23T03:45:50.222Z,93.621826
2023-02-23T03:46:57.795Z,93.414307
2023-02-23T03:48:05.449Z,93.414307
2023-02-23T03:49:15.128Z,93.414307
2023-02-23T03:50:23.772Z,93.353271
2023-02-23T03:51:33.445Z,93.560791
2023-02-23T03:52:42.121Z,93.664551
2023-02-23T03:53:50.773Z,93.768311
2023-02-23T03:55:00.441Z,93.768311
2023-02-23T03:56:09.115Z,93.97583
2023-02-23T03:57:17.798Z,94.07959
2023-02-23T03:58:27.477Z,94.07959
2023-02-23T03:59:37.166Z,94.07959
2023-02-23T04:00:46.894Z,94.07959
2023-02-23T04:01:55.548Z,93.97583
2023-02-23T04:03:05.223Z,93.97583
2023-02-23T04:04:14.951Z,93.87207
2023-02-23T04:05:22.651Z,93.768311
2023-02-23T04:06:30.353Z,93.768311
2023-02-23T04:07:40.027Z,93.768311
2023-02-23T04:08:48.673Z,93.664551
2023-02-23T04:09:57.321Z,93.664551
2023-02-23T04:11:05.984Z,93.768311
2023-02-23T04:12:15.641Z,93.768311
2023-02-23T04:13:25.282Z,93.768311
2023-02-23T04:14:33.929Z,93.664551
2023-02-23T04:15:42.676Z,93.768311
2023-02-23T04:16:52.298Z,93.768311
2023-02-23T04:18:01.938Z,93.768311
2023-02-23T04:19:10.587Z,94.07959
2023-02-23T04:20:19.259Z,94.122314
2023-02-23T04:21:27.954Z,94.226074
2023-02-23T04:22:37.658Z,94.226074
2023-02-23T04:23:45.362Z,94.226074
2023-02-23T04:24:53.041Z,94.32373
2023-02-23T04:26:02.744Z,94.42749
2023-02-23T04:27:11.389Z,94.42749
2023-02-23T04:28:20.088Z,94.42749
2023-02-23T04:29:29.772Z,94.42749
2023-02-23T04:30:38.466Z,94.573975
2023-02-23T04:31:48.264Z,94.63501
2023-02-23T04:32:57.781Z,94.73877
2023-02-23T04:34:07.462Z,94.842529
2023-02-23T04:35:17.113Z,94.73877
2023-02-23T04:36:26.847Z,94.885254
2023-02-23T04:37:35.500Z,94.885254
2023-02-23T04:38:45.153Z,94.989014
2023-02-23T04:39:53.826Z,95.092773
2023-02-23T04:41:03.492Z,95.092773
2023-02-23T04:42:11.181Z,95.196533
2023-02-23T04:43:20.870Z,95.300293
2023-02-23T04:44:30.525Z,95.300293
2023-02-23T04:45:40.264Z,95.196533
2023-02-23T04:46:49.918Z,95.092773
2023-02-23T04:47:59.561Z,95.031738
2023-02-23T04:49:09.214Z,95.031738
2023-02-23T04:50:18.909Z,95.135498
2023-02-23T04:51:27.601Z,95.446777
2023-02-23T04:52:37.269Z,95.758057
2023-02-23T04:53:45.925Z,95.959473
2023-02-23T04:54:53.610Z,96.105957
2023-02-23T04:56:03.290Z,96.105957
2023-02-23T04:57:12.978Z,96.105957
2023-02-23T04:58:21.640Z,96.105957
2023-02-23T04:59:30.351Z,96.008301
2023-02-23T05:00:39.002Z,96.105957
2023-02-23T05:01:48.695Z,96.209717
2023-02-23T05:02:57.406Z,96.466064
2023-02-23T05:04:06.040Z,96.466064
2023-02-23T05:05:15.747Z,96.258545
2023-02-23T05:06:25.429Z,96.154785
2023-02-23T05:07:34.175Z,96.154785
2023-02-23T05:08:43.860Z,96.258545
2023-02-23T05:09:52.529Z,96.362305
2023-02-23T05:11:02.203Z,96.466064
2023-02-23T05:12:10.895Z,96.563721
2023-02-23T05:13:20.602Z,96.66748
2023-02-23T05:14:30.217Z,96.563721
2023-02-23T05:15:38.941Z,96.466064
2023-02-23T05:16:47.648Z,96.508789
2023-02-23T05:17:56.331Z,96.612549
2023-02-23T05:19:05.024Z,96.716309
2023-02-23T05:20:14.698Z,96.820068
2023-02-23T05:21:24.346Z,96.820068
2023-02-23T05:22:33.030Z,96.820068
2023-02-23T05:23:42.713Z,97.021484
2023-02-23T05:24:52.400Z,97.436523
2023-02-23T05:26:02.054Z,97.540283
2023-02-23T05:27:10.741Z,97.540283
2023-02-23T05:28:20.413Z,97.644043
2023-02-23T05:29:30.077Z,97.851562
2023-02-23T05:30:38.764Z,98.059082
2023-02-23T05:31:46.543Z,98.162842
2023-02-23T05:32:55.118Z,98.059082
2023-02-23T05:34:03.779Z,97.955322
2023-02-23T05:35:13.445Z,98.059082
2023-02-23T05:36:23.119Z,98.059082
2023-02-23T05:37:31.872Z,98.205566
2023-02-23T05:38:41.540Z,98.205566
2023-02-23T05:39:50.197Z,98.309326
2023-02-23T05:40:59.865Z,98.309326
2023-02-23T05:42:09.566Z,98.309326
2023-02-23T05:43:19.268Z,98.309326
2023-02-23T05:44:27.945Z,98.309326
2023-02-23T05:45:36.595Z,98.516846
2023-02-23T05:46:45.244Z,98.620605
2023-02-23T05:47:54.938Z,98.620605
2023-02-23T05:49:02.588Z,98.620605
2023-02-23T05:50:10.278Z,98.55957
2023-02-23T05:51:20.275Z,98.455811
2023-02-23T05:52:28.634Z,98.455811
2023-02-23T05:53:37.312Z,98.455811
2023-02-23T05:54:46.983Z,98.455811
2023-02-23T05:55:55.638Z,98.455811
2023-02-23T05:57:05.318Z,98.455811
2023-02-23T05:58:13.019Z,98.455811
2023-02-23T05:59:20.672Z,98.455811
2023-02-23T06:00:30.386Z,98.504639
2023-02-23T06:01:40.049Z,98.400879
2023-02-23T06:02:49.793Z,98.297119
2023-02-23T06:03:58.507Z,98.193359
2023-02-23T06:05:08.116Z,98.400879
2023-02-23T06:06:17.783Z,98.504639
2023-02-23T06:07:25.484Z,98.608398
2023-02-23T06:08:34.144Z,98.712158
2023-02-23T06:09:44.639Z,98.815918
2023-02-23T06:10:52.469Z,98.815918
2023-02-23T06:12:01.155Z,98.815918
2023-02-23T06:13:09.826Z,99.127197
2023-02-23T06:14:18.468Z,99.597168
2023-02-23T06:15:29.879Z,99.993896
2023-02-23T06:16:36.984Z,99.993896
2023-02-23T06:17:45.491Z,99.993896
2023-02-23T06:18:54.170Z,99.993896
2023-02-23T06:20:03.815Z,99.993896
2023-02-23T06:21:13.513Z,99.993896
2023-02-23T06:22:22.196Z,99.993896
2023-02-23T06:23:31.935Z,99.975586
2023-02-23T06:24:41.574Z,99.621582
2023-02-23T06:25:51.222Z,99.206543
2023-02-23T06:26:57.915Z,98.64502
2023-02-23T06:28:07.614Z,97.924805
2023-02-23T06:29:17.310Z,97.509766
2023-02-23T06:30:26.007Z,97.052002
2023-02-23T06:31:35.806Z,96.636963
2023-02-23T06:32:44.322Z,96.020508
2023-02-23T06:33:54.017Z,95.300293
2023-02-23T06:35:02.682Z,95.196533
2023-02-23T06:36:12.361Z,95.300293
2023-02-23T06:37:22.077Z,95.196533
2023-02-23T06:38:30.800Z,95.092773
2023-02-23T06:39:40.632Z,95.196533
2023-02-23T06:40:50.166Z,95.196533
2023-02-23T06:41:59.856Z,95.092773
2023-02-23T06:43:09.557Z,95.196533
2023-02-23T06:44:18.234Z,95.404053
2023-02-23T06:45:25.926Z,95.404053
2023-02-23T06:46:35.715Z,95.404053
2023-02-23T06:47:45.398Z,95.501709
2023-02-23T06:48:55.079Z,95.605469
2023-02-23T06:50:04.822Z,95.709229
2023-02-23T06:51:13.480Z,95.709229
2023-02-23T06:52:22.186Z,95.605469
2023-02-23T06:53:31.885Z,95.709229
2023-02-23T06:54:41.554Z,95.709229
2023-02-23T06:55:49.294Z,95.709229
2023-02-23T06:56:57.958Z,95.709229
2023-02-23T06:58:07.716Z,95.562744
2023-02-23T06:59:17.396Z,95.458984
2023-02-23T07:00:26.079Z,95.458984
2023-02-23T07:01:34.791Z,95.355225
2023-02-23T07:02:43.461Z,95.251465
2023-02-23T07:03:53.271Z,95.251465
2023-02-23T07:05:01.905Z,95.153809
2023-02-23T07:06:10.577Z,95.10498
2023-02-23T07:07:20.279Z,95.10498
2023-02-23T07:08:29.970Z,95.001221
2023-02-23T07:09:39.657Z,94.903564
2023-02-23T07:10:48.368Z,94.903564
2023-02-23T07:11:56.108Z,94.696045
2023-02-23T07:13:05.778Z,94.549561
2023-02-23T07:14:25.201Z,94.445801
2023-02-23T07:15:25.154Z,94.445801
2023-02-23T07:16:34.850Z,94.342041
2023-02-23T07:17:44.496Z,94.238281
2023-02-23T07:18:54.161Z,94.134521
2023-02-23T07:20:02.891Z,93.988037
2023-02-23T07:21:11.562Z,93.988037
2023-02-23T07:22:21.270Z,93.884277
2023-02-23T07:23:27.939Z,93.786621
2023-02-23T07:24:36.687Z,93.786621
2023-02-23T07:25:46.393Z,93.682861
2023-02-23T07:26:55.604Z,93.432617
2023-02-23T07:28:05.465Z,93.328857
2023-02-23T07:29:15.182Z,93.121338
2023-02-23T07:30:23.901Z,93.017578
2023-02-23T07:31:33.813Z,92.816162
2023-02-23T07:32:41.413Z,92.712402
2023-02-23T07:33:49.170Z,92.712402
2023-02-23T07:34:58.984Z,92.608643
2023-02-23T07:36:08.735Z,92.565918
2023-02-23T07:37:17.420Z,92.462158
2023-02-23T07:38:27.158Z,92.358398
2023-02-23T07:39:35.856Z,92.254639
2023-02-23T07:40:45.549Z,92.156982
2023-02-23T07:41:54.243Z,91.949463
2023-02-23T07:43:02.022Z,91.906738
2023-02-23T07:44:11.785Z,91.802979
2023-02-23T07:45:20.474Z,91.699219
2023-02-23T07:46:29.134Z,91.595459
2023-02-23T07:47:38.818Z,91.595459
2023-02-23T07:48:48.495Z,91.595459
2023-02-23T07:49:58.236Z,91.491699
2023-02-23T07:51:05.972Z,91.351318
2023-02-23T07:52:15.663Z,91.448975
2023-02-23T07:53:25.341Z,91.552734
2023-02-23T07:54:34.054Z,91.552734
2023-02-23T07:55:42.762Z,91.552734
2023-02-23T07:56:51.457Z,91.448975
2023-02-23T07:58:00.177Z,91.351318
2023-02-23T07:59:11.005Z,91.351318
2023-02-23T08:00:20.779Z,91.247559
2023-02-23T08:01:28.535Z,91.204834
2023-02-23T08:02:38.252Z,91.204834
2023-02-23T08:03:47.990Z,91.204834
2023-02-23T08:04:56.707Z,91.204834
2023-02-23T08:06:06.409Z,90.997314
2023-02-23T08:07:15.129Z,90.997314
2023-02-23T08:08:24.872Z,90.753174
2023-02-23T08:09:33.624Z,90.649414
2023-02-23T08:10:42.317Z,90.441895
2023-02-23T08:11:53.015Z,90.441895
2023-02-23T08:13:02.760Z,90.441895
2023-02-23T08:14:12.475Z,90.301514
2023-02-23T08:15:21.152Z,90.197754
2023-02-23T08:16:29.957Z,90.093994
2023-02-23T08:17:39.461Z,90.197754
2023-02-23T08:18:48.202Z,90.05127
2023-02-23T08:19:56.873Z,89.94751
2023-02-23T08:21:06.528Z,89.642334
2023-02-23T08:22:15.264Z,89.233398
2023-02-23T08:23:23.928Z,89.086914
2023-02-23T08:24:33.742Z,88.781738
2023-02-23T08:25:43.450Z,88.983154
2023-02-23T08:26:53.186Z,88.781738
2023-02-23T08:28:03.689Z,88.879395
2023-02-23T08:29:09.563Z,88.781738
2023-02-23T08:30:19.328Z,88.635254
2023-02-23T08:31:28.142Z,88.427734
2023-02-23T08:32:37.876Z,88.427734
2023-02-23T08:33:47.426Z,88.122559
2023-02-23T08:34:56.144Z,87.878418
2023-02-23T08:36:05.839Z,87.670898
2023-02-23T08:37:14.492Z,87.469482
2023-02-23T08:38:23.278Z,87.567139
2023-02-23T08:39:32.963Z,87.530518
2023-02-23T08:40:41.642Z,87.322998
2023-02-23T08:41:51.346Z,87.322998
2023-02-23T08:43:01.015Z,87.219238
2023-02-23T08:44:09.688Z,87.322998
2023-02-23T08:45:19.363Z,87.322998
2023-02-23T08:46:28.078Z,87.835693
2023-02-23T08:47:37.726Z,88.043213
2023-02-23T08:48:45.449Z,88.140869
2023-02-23T08:49:54.077Z,88.452148
2023-02-23T08:51:03.762Z,88.555908
2023-02-23T08:52:12.435Z,88.555908
2023-02-23T08:53:21.135Z,88.452148
2023-02-23T08:54:29.837Z,88.452148
2023-02-23T08:55:39.568Z,88.555908
2023-02-23T08:56:49.342Z,88.555908
2023-02-23T08:57:57.895Z,88.409424
2023-02-23T08:59:06.624Z,88.104248
2023-02-23T09:00:16.339Z,88.000488
2023-02-23T09:01:25.136Z,88.000488
2023-02-23T09:02:34.680Z,88.000488
2023-02-23T09:03:43.368Z,88.201904
2023-02-23T09:04:52.079Z,88.201904
2023-02-23T09:06:01.834Z,88.305664
2023-02-23T09:07:10.614Z,88.000488
2023-02-23T09:08:19.364Z,87.896729
2023-02-23T09:09:29.233Z,87.792969
2023-02-23T09:10:39.033Z,88.000488
2023-02-23T09:11:47.784Z,87.896729
2023-02-23T09:12:57.452Z,87.756348
2023-02-23T09:14:06.132Z,87.548828
2023-02-23T09:15:15.864Z,87.347412
2023-02-23T09:16:23.513Z,87.243652
2023-02-23T09:17:33.184Z,87.036133
2023-02-23T09:18:42.864Z,87.036133
2023-02-23T09:19:51.490Z,87.036133
2023-02-23T09:21:01.203Z,87.243652
2023-02-23T09:22:10.908Z,87.243652
2023-02-23T09:23:19.691Z,87.139893
2023-02-23T09:24:29.383Z,87.243652
2023-02-23T09:25:38.101Z,87.347412
2023-02-23T09:26:47.765Z,87.347412
2023-02-23T09:27:57.460Z,86.938477
2023-02-23T09:29:06.101Z,86.791992
2023-02-23T09:30:15.824Z,86.694336
2023-02-23T09:31:24.794Z,86.590576
2023-02-23T09:32:33.288Z,86.486816
2023-02-23T09:33:42.851Z,86.242676
2023-02-23T09:34:52.588Z,86.035156
2023-02-23T09:36:01.294Z,85.72998
2023-02-23T09:37:11.007Z,85.528564
2023-02-23T09:38:19.705Z,85.119629
2023-02-23T09:39:37.935Z,85.217285
2023-02-23T09:40:40.033Z,84.979248
2023-02-23T09:41:48.679Z,85.076904
2023-02-23T09:42:58.366Z,85.076904
2023-02-23T09:44:08.050Z,85.48584
2023-02-23T09:45:16.773Z,85.040283
2023-02-23T09:46:26.462Z,84.423828
2023-02-23T09:47:35.097Z,83.917236
2023-02-23T09:48:43.763Z,83.709717
2023-02-23T09:49:53.481Z,83.709717
2023-02-23T09:51:02.159Z,83.813477
2023-02-23T09:52:12.084Z,83.612061
2023-02-23T09:53:19.580Z,83.465576
2023-02-23T09:54:28.216Z,83.36792
2023-02-23T09:55:37.920Z,83.465576
2023-02-23T09:56:47.587Z,83.569336
2023-02-23T09:57:56.238Z,83.1604
2023-02-23T09:59:04.911Z,82.91626
2023-02-23T10:00:14.593Z,82.714844
2023-02-23T10:01:24.302Z,82.611084
2023-02-23T10:02:32.958Z,82.611084
2023-02-23T10:03:42.641Z,82.513428
2023-02-23T10:04:52.388Z,82.751465
2023-02-23T10:06:02.025Z,82.855225
2023-02-23T10:07:10.703Z,82.855225
2023-02-23T10:08:20.388Z,83.1604
2023-02-23T10:09:29.068Z,83.26416
2023-02-23T10:10:38.770Z,83.612061
2023-02-23T10:11:48.480Z,83.917236
2023-02-23T10:12:57.138Z,84.118652
2023-02-23T10:14:06.830Z,84.222412
2023-02-23T10:15:15.541Z,84.326172
2023-02-23T10:16:23.228Z,84.118652
2023-02-23T10:17:31.893Z,84.118652
2023-02-23T10:18:46.748Z,84.014893
2023-02-23T10:19:52.233Z,83.978271
2023-02-23T10:21:00.952Z,83.569336
2023-02-23T10:22:09.603Z,83.465576
2023-02-23T10:23:18.283Z,83.734131
2023-02-23T10:24:27.144Z,83.428955
2023-02-23T10:25:36.951Z,82.91626
2023-02-23T10:26:46.751Z,82.818604
2023-02-23T10:27:55.516Z,82.373047
2023-02-23T10:29:05.156Z,82.373047
2023-02-23T10:30:12.829Z,82.165527
2023-02-23T10:31:20.958Z,81.616211
2023-02-23T10:32:30.335Z,81.518555
2023-02-23T10:33:38.940Z,81.005859
2023-02-23T10:34:47.619Z,80.908203
2023-02-23T10:36:07.338Z,80.700684
2023-02-23T10:37:07.046Z,81.005859
2023-02-23T10:38:16.764Z,81.04248
2023-02-23T10:39:24.456Z,81.35376
2023-02-23T10:40:32.146Z,80.804443
2023-02-23T10:41:41.870Z,80.908203
2023-02-23T10:42:51.523Z,80.291748
2023-02-23T10:44:14.519Z,80.499268
2023-02-23T10:45:11.831Z,80.157471
2023-02-23T10:46:20.700Z,79.949951
2023-02-23T10:47:29.370Z,79.644775
2023-02-23T10:48:38.089Z,79.986572
2023-02-23T10:49:48.743Z,80.291748
2023-02-23T10:50:56.420Z,80.090332
2023-02-23T10:52:05.120Z,80.291748
2023-02-23T10:53:14.791Z,80.535889
2023-02-23T10:54:24.092Z,80.639648
2023-02-23T10:55:32.148Z,80.841064
2023-02-23T10:56:41.817Z,81.25
2023-02-23T10:57:50.514Z,81.14624
2023-02-23T10:59:00.229Z,80.944824
2023-02-23T11:00:09.937Z,80.944824
2023-02-23T11:01:18.243Z,81.14624
2023-02-23T11:02:27.587Z,80.841064
2023-02-23T11:03:35.919Z,80.944824
2023-02-23T11:04:45.624Z,81.14624
2023-02-23T11:05:54.343Z,81.591797
2023-02-23T11:07:03.990Z,81.896973
2023-02-23T11:08:14.071Z,81.799316
2023-02-23T11:09:29.749Z,81.658936
2023-02-23T11:10:32.065Z,81.35376
2023-02-23T11:11:41.931Z,80.639648
2023-02-23T11:12:50.636Z,80.737305
2023-02-23T11:14:00.349Z,80.841064
2023-02-23T11:15:09.994Z,80.700684
2023-02-23T11:16:18.721Z,80.395508
2023-02-23T11:17:28.752Z,80.908203
2023-02-23T11:18:37.094Z,80.700684
2023-02-23T11:19:46.469Z,80.157471
2023-02-23T11:20:55.508Z,79.852295
2023-02-23T11:22:05.171Z,79.748535
2023-02-23T11:23:15.058Z,79.541016
2023-02-23T11:24:23.568Z,79.3396
2023-02-23T11:25:33.213Z,79.644775
2023-02-23T11:26:43.040Z,79.80957
2023-02-23T11:27:51.784Z,79.541016
2023-02-23T11:29:01.501Z,79.711914
2023-02-23T11:30:11.154Z,79.748535
2023-02-23T11:31:21.345Z,79.034424
2023-02-23T11:32:30.692Z,78.930664
2023-02-23T11:33:39.306Z,79.443359
2023-02-23T11:34:49.124Z,79.3396
2023-02-23T11:35:58.846Z,79.748535
2023-02-23T11:37:07.896Z,79.3396
2023-02-23T11:38:17.154Z,78.930664
2023-02-23T11:39:27.028Z,79.138184
2023-02-23T11:40:35.730Z,79.23584
2023-02-23T11:41:44.404Z,78.588867
2023-02-23T11:42:53.104Z,78.796387
2023-02-23T11:44:01.951Z,78.45459
2023-02-23T11:45:11.462Z,78.24707
2023-02-23T11:46:20.438Z,78.35083
2023-02-23T11:47:28.887Z,77.838135
2023-02-23T11:48:38.553Z,77.905273
2023-02-23T11:49:47.274Z,77.197266
2023-02-23T11:50:55.983Z,77.294922
2023-02-23T11:52:04.725Z,76.281738
2023-02-23T11:53:14.428Z,76.281738
2023-02-23T11:54:24.102Z,75.872803
2023-02-23T11:55:31.757Z,76.78833
2023-02-23T11:56:39.404Z,76.586914
2023-02-23T11:57:49.075Z,76.177979
2023-02-23T11:58:57.862Z,76.519775
2023-02-23T12:00:07.499Z,76.617432
2023-02-23T12:01:15.165Z,77.130127
2023-02-23T12:02:23.908Z,77.331543
2023-02-23T12:03:33.618Z,76.989746
2023-02-23T12:04:49.405Z,75.872803
2023-02-23T12:05:57.984Z,76.074219
2023-02-23T12:07:06.636Z,76.483154
2023-02-23T12:08:14.332Z,76.074219
2023-02-23T12:09:22.934Z,75.872803
2023-02-23T12:10:32.640Z,75.836182
2023-02-23T12:11:42.273Z,75.024414
2023-02-23T12:12:50.926Z,75.024414
2023-02-23T12:14:00.613Z,75.12207
2023-02-23T12:15:09.300Z,75.22583
2023-02-23T12:16:19.250Z,75.22583
2023-02-23T12:17:28.624Z,74.377441
2023-02-23T12:18:38.286Z,74.44458
2023-02-23T12:19:47.934Z,74.139404
2023-02-23T12:20:56.615Z,73.803711
2023-02-23T12:22:04.251Z,73.156738
2023-02-23T12:23:12.935Z,72.44873
2023-02-23T12:24:22.593Z,71.801758
2023-02-23T12:25:31.263Z,71.331787
2023-02-23T12:26:40.936Z,69.610596
2023-02-23T12:27:50.693Z,68.395996
2023-02-23T12:29:00.340Z,68.670654
2023-02-23T12:30:09.179Z,67.425537
2023-02-23T12:31:17.761Z,67.449951
2023-02-23T12:32:27.424Z,68.798828
2023-02-23T12:33:36.042Z,69.000244
2023-02-23T12:34:44.653Z,67.889404
2023-02-23T12:35:52.336Z,67.889404
2023-02-23T12:37:01.985Z,67.889404
2023-02-23T12:38:10.668Z,68.017578
2023-02-23T12:39:18.306Z,68.731689
2023-02-23T12:40:27.024Z,69.238281
2023-02-23T12:41:36.711Z,69.134521
2023-02-23T12:42:45.357Z,69.677734
2023-02-23T12:43:55.053Z,70.52002
2023-02-23T12:45:04.703Z,70.959473
2023-02-23T12:46:14.452Z,71.264648
2023-02-23T12:47:24.165Z,71.66748
2023-02-23T12:48:32.926Z,71.77124
2023-02-23T12:49:42.702Z,72.076416
2023-02-23T12:50:52.409Z,72.381592
2023-02-23T12:52:01.176Z,72.686768
2023-02-23T12:53:10.954Z,72.546387
2023-02-23T12:54:20.712Z,71.734619
2023-02-23T12:55:29.466Z,71.734619
2023-02-23T12:56:38.226Z,71.77124
2023-02-23T12:57:46.961Z,71.66748
2023-02-23T12:58:56.757Z,72.076416
2023-02-23T13:00:04.487Z,72.277832
2023-02-23T13:01:14.234Z,72.583008
2023-02-23T13:02:24.053Z,72.174072
2023-02-23T13:03:32.755Z,71.77124
2023-02-23T13:04:42.507Z,72.174072
2023-02-23T13:05:51.316Z,72.174072
2023-02-23T13:06:59.984Z,72.174072
2023-02-23T13:08:13.534Z,71.362305
2023-02-23T13:09:20.565Z,71.160889
2023-02-23T13:10:29.328Z,71.295166